createdAt,value
2018-04-29T00:00:27.316Z,852.31
2018-04-29T00:01:27.189Z,852.23
2018-04-29T00:02:27.067Z,852.22
2018-04-29T00:03:26.946Z,852.20
2018-04-29T00:04:26.813Z,852.19
2018-04-29T00:05:26.688Z,852.21
2018-04-29T00:06:26.562Z,852.20
2018-04-29T00:07:26.438Z,852.20
2018-04-29T00:08:26.311Z,852.20
2018-04-29T00:09:26.185Z,852.14
2018-04-29T00:10:26.059Z,852.13
2018-04-29T00:11:25.933Z,852.15
2018-04-29T00:12:25.808Z,852.09
2018-04-29T00:13:25.683Z,852.11
2018-04-29T00:14:25.557Z,852.11
2018-04-29T00:15:25.432Z,852.10
2018-04-29T00:16:25.307Z,852.06
2018-04-29T00:17:25.186Z,851.99
2018-04-29T00:18:25.055Z,851.98
2018-04-29T00:19:24.930Z,851.95
2018-04-29T00:20:24.804Z,851.98
2018-04-29T00:21:24.679Z,852.00
2018-04-29T00:22:24.550Z,852.07
2018-04-29T00:23:24.429Z,852.04
2018-04-29T00:24:24.300Z,852.04
2018-04-29T00:25:24.178Z,852.02
2018-04-29T00:26:24.048Z,852.01
2018-04-29T00:27:23.923Z,852.01
2018-04-29T00:28:23.798Z,852.00
2018-04-29T00:29:23.679Z,852.02
2018-04-29T00:30:23.546Z,852.02
2018-04-29T00:31:23.421Z,851.98
2018-04-29T00:32:23.293Z,851.97
2018-04-29T00:33:23.171Z,851.99
2018-04-29T00:34:23.044Z,852.02
2018-04-29T00:35:22.917Z,852.01
2018-04-29T00:36:22.791Z,851.99
2018-04-29T00:37:22.666Z,851.92
2018-04-29T00:38:22.542Z,851.85
2018-04-29T00:39:22.418Z,851.83
2018-04-29T00:40:22.293Z,851.78
2018-04-29T00:41:22.167Z,851.72
2018-04-29T00:42:22.040Z,851.68
2018-04-29T00:43:21.915Z,851.69
2018-04-29T00:44:21.809Z,851.67
2018-04-29T00:45:21.669Z,851.62
2018-04-29T00:46:21.542Z,851.62
2018-04-29T00:47:21.417Z,851.67
2018-04-29T00:48:21.291Z,851.65
2018-04-29T00:49:21.165Z,851.67
2018-04-29T00:50:21.037Z,851.72
2018-04-29T00:51:20.914Z,851.66
2018-04-29T00:52:20.788Z,851.64
2018-04-29T00:53:20.713Z,851.66
2018-04-29T00:54:20.535Z,851.67
2018-04-29T00:55:20.408Z,851.70
2018-04-29T00:56:20.287Z,851.66
2018-04-29T00:57:20.162Z,851.66
2018-04-29T00:58:20.032Z,851.61
2018-04-29T00:59:19.909Z,851.56
2018-04-29T01:00:19.782Z,851.61
2018-04-29T01:01:19.657Z,851.64
2018-04-29T01:02:19.530Z,851.64
2018-04-29T01:03:19.406Z,851.62
2018-04-29T01:04:19.280Z,851.62
2018-04-29T01:05:19.155Z,851.64
2018-04-29T01:06:19.030Z,851.55
2018-04-29T01:07:18.904Z,851.62
2018-04-29T01:08:18.777Z,851.60
2018-04-29T01:09:18.651Z,851.58
2018-04-29T01:10:18.525Z,851.64
2018-04-29T01:11:18.399Z,851.64
2018-04-29T01:12:18.274Z,851.67
2018-04-29T01:13:18.149Z,851.67
2018-04-29T01:14:18.029Z,851.64
2018-04-29T01:15:17.897Z,851.64
2018-04-29T01:16:17.772Z,851.58
2018-04-29T01:17:17.646Z,851.55
2018-04-29T01:18:17.519Z,851.55
2018-04-29T01:19:17.396Z,851.57
2018-04-29T01:20:17.268Z,851.57
2018-04-29T01:21:17.142Z,851.55
2018-04-29T01:22:17.017Z,851.55
2018-04-29T01:23:16.891Z,851.55
2018-04-29T01:24:16.772Z,851.54
2018-04-29T01:25:16.639Z,851.54
2018-04-29T01:26:16.515Z,851.54
2018-04-29T01:27:16.388Z,851.60
2018-04-29T01:28:16.264Z,851.64
2018-04-29T01:29:16.138Z,851.66
2018-04-29T01:30:16.012Z,851.63
2018-04-29T01:31:15.886Z,851.60
2018-04-29T01:32:15.761Z,851.57
2018-04-29T01:33:15.634Z,851.53
2018-04-29T01:34:15.508Z,851.57
2018-04-29T01:35:15.384Z,851.58
2018-04-29T01:36:15.257Z,851.64
2018-04-29T01:37:15.132Z,851.64
2018-04-29T01:38:15.006Z,851.67
2018-04-29T01:39:14.880Z,851.70
2018-04-29T01:40:14.755Z,851.71
2018-04-29T01:41:14.633Z,851.64
2018-04-29T01:42:14.505Z,851.65
2018-04-29T01:43:14.375Z,851.65
2018-04-29T01:44:14.255Z,851.66
2018-04-29T01:45:14.126Z,851.64
2018-04-29T01:46:13.998Z,851.66
2018-04-29T01:47:13.873Z,851.66
2018-04-29T01:48:13.751Z,851.64
2018-04-29T01:49:13.624Z,851.62
2018-04-29T01:50:13.499Z,851.66
2018-04-29T01:51:13.373Z,851.64
2018-04-29T01:52:13.249Z,851.62
2018-04-29T01:53:13.121Z,851.58
2018-04-29T01:54:12.997Z,851.61
2018-04-29T01:55:12.874Z,851.60
2018-04-29T01:56:12.742Z,851.58
2018-04-29T01:57:12.619Z,851.56
2018-04-29T01:58:12.490Z,851.55
2018-04-29T01:59:12.367Z,851.52
2018-04-29T02:00:12.242Z,851.57
2018-04-29T02:01:12.117Z,851.57
2018-04-29T02:02:11.989Z,851.56
2018-04-29T02:03:11.863Z,851.55
2018-04-29T02:04:11.736Z,851.55
2018-04-29T02:05:11.609Z,851.52
2018-04-29T02:06:11.487Z,851.52
2018-04-29T02:07:11.359Z,851.53
2018-04-29T02:08:11.235Z,851.48
2018-04-29T02:09:11.107Z,851.44
2018-04-29T02:10:10.980Z,851.46
2018-04-29T02:11:10.857Z,851.44
2018-04-29T02:12:10.729Z,851.47
2018-04-29T02:13:10.604Z,851.46
2018-04-29T02:14:10.480Z,851.50
2018-04-29T02:15:10.350Z,851.53
2018-04-29T02:16:10.226Z,851.53
2018-04-29T02:17:10.101Z,851.54
2018-04-29T02:18:09.974Z,851.49
2018-04-29T02:19:09.850Z,851.43
2018-04-29T02:20:09.725Z,851.45
2018-04-29T02:21:09.599Z,851.43
2018-04-29T02:22:09.477Z,851.45
2018-04-29T02:23:09.347Z,851.43
2018-04-29T02:24:09.220Z,851.46
2018-04-29T02:25:09.097Z,851.36
2018-04-29T02:26:08.970Z,851.34
2018-04-29T02:27:08.850Z,851.33
2018-04-29T02:28:08.726Z,851.35
2018-04-29T02:29:08.594Z,851.33
2018-04-29T02:30:08.467Z,851.29
2018-04-29T02:31:08.347Z,851.24
2018-04-29T02:32:08.223Z,851.28
2018-04-29T02:33:08.092Z,851.25
2018-04-29T02:34:07.966Z,851.22
2018-04-29T02:35:07.840Z,851.24
2018-04-29T02:36:07.716Z,851.16
2018-04-29T02:37:07.591Z,851.17
2018-04-29T02:38:07.464Z,851.14
2018-04-29T02:39:07.338Z,851.13
2018-04-29T02:40:07.212Z,851.14
2018-04-29T02:41:07.088Z,851.15
2018-04-29T02:42:06.961Z,851.15
2018-04-29T02:43:06.838Z,851.13
2018-04-29T02:44:06.712Z,851.17
2018-04-29T02:45:06.585Z,851.16
2018-04-29T02:46:06.462Z,851.13
2018-04-29T02:47:06.334Z,851.15
2018-04-29T02:48:06.210Z,851.15
2018-04-29T02:49:06.084Z,851.20
2018-04-29T02:50:05.959Z,851.17
2018-04-29T02:51:05.833Z,851.18
2018-04-29T02:52:05.708Z,851.18
2018-04-29T02:53:05.591Z,851.20
2018-04-29T02:54:05.455Z,851.18
2018-04-29T02:55:05.329Z,851.17
2018-04-29T02:56:05.208Z,851.13
2018-04-29T02:57:05.082Z,851.16
2018-04-29T02:58:04.955Z,851.18
2018-04-29T02:59:04.839Z,851.16
2018-04-29T03:00:04.704Z,851.20
2018-04-29T03:01:04.580Z,851.17
2018-04-29T03:02:04.453Z,851.15
2018-04-29T03:03:04.329Z,851.12
2018-04-29T03:04:04.212Z,851.13
2018-04-29T03:05:04.078Z,851.12
2018-04-29T03:06:03.954Z,851.08
2018-04-29T03:07:03.828Z,851.09
2018-04-29T03:08:03.702Z,851.09
2018-04-29T03:09:03.575Z,851.05
2018-04-29T03:10:03.450Z,851.08
2018-04-29T03:11:03.326Z,851.11
2018-04-29T03:12:03.202Z,851.13
2018-04-29T03:13:03.078Z,851.13
2018-04-29T03:14:02.950Z,851.17
2018-04-29T03:15:02.824Z,851.17
2018-04-29T03:16:02.697Z,851.13
2018-04-29T03:17:02.575Z,851.13
2018-04-29T03:18:02.453Z,851.11
2018-04-29T03:19:02.324Z,851.14
2018-04-29T03:20:02.201Z,851.15
2018-04-29T03:21:02.079Z,851.20
2018-04-29T03:22:01.947Z,851.20
2018-04-29T03:23:01.820Z,851.21
2018-04-29T03:24:01.695Z,851.21
2018-04-29T03:25:01.573Z,851.21
2018-04-29T03:26:01.444Z,851.21
2018-04-29T03:27:01.322Z,851.18
2018-04-29T03:28:01.195Z,851.16
2018-04-29T03:29:01.070Z,851.15
2018-04-29T03:30:00.946Z,851.13
2018-04-29T03:31:00.819Z,851.07
2018-04-29T03:32:00.694Z,851.07
2018-04-29T03:33:00.570Z,851.04
2018-04-29T03:34:00.442Z,851.06
2018-04-29T03:35:00.322Z,851.03
2018-04-29T03:36:00.194Z,851.00
2018-04-29T03:37:00.069Z,850.98
2018-04-29T03:37:59.944Z,851.08
2018-04-29T03:38:59.821Z,851.07
2018-04-29T03:39:59.697Z,851.06
2018-04-29T03:40:59.567Z,851.06
2018-04-29T03:41:59.441Z,851.00
2018-04-29T03:42:59.315Z,851.01
2018-04-29T03:43:59.195Z,851.00
2018-04-29T03:44:59.066Z,850.96
2018-04-29T03:45:58.943Z,850.98
2018-04-29T03:46:58.815Z,850.96
2018-04-29T03:47:58.689Z,851.00
2018-04-29T03:48:58.565Z,851.02
2018-04-29T03:49:58.439Z,851.05
2018-04-29T03:50:58.315Z,851.03
2018-04-29T03:51:58.188Z,851.03
2018-04-29T03:52:58.065Z,850.99
2018-04-29T03:53:57.939Z,851.02
2018-04-29T03:54:57.812Z,851.02
2018-04-29T03:55:57.693Z,851.00
2018-04-29T03:56:57.562Z,851.01
2018-04-29T03:57:57.435Z,850.98
2018-04-29T03:58:57.311Z,850.99
2018-04-29T03:59:57.186Z,851.03
2018-04-29T04:00:57.061Z,851.03
2018-04-29T04:01:56.933Z,851.04
2018-04-29T04:02:56.808Z,851.04
2018-04-29T04:03:56.684Z,851.05
2018-04-29T04:04:56.558Z,851.05
2018-04-29T04:05:56.432Z,851.02
2018-04-29T04:06:56.304Z,851.03
2018-04-29T04:07:56.182Z,850.99
2018-04-29T04:08:56.059Z,850.93
2018-04-29T04:09:55.931Z,850.92
2018-04-29T04:10:55.805Z,850.90
2018-04-29T04:11:55.685Z,850.88
2018-04-29T04:12:55.554Z,850.89
2018-04-29T04:13:55.429Z,850.92
2018-04-29T04:14:55.304Z,850.92
2018-04-29T04:15:55.176Z,850.89
2018-04-29T04:16:55.052Z,850.89
2018-04-29T04:17:54.928Z,850.83
2018-04-29T04:18:54.803Z,850.78
2018-04-29T04:19:54.677Z,850.82
2018-04-29T04:20:54.549Z,850.80
2018-04-29T04:21:54.424Z,850.88
2018-04-29T04:22:54.299Z,850.89
2018-04-29T04:23:54.175Z,850.89
2018-04-29T04:24:54.050Z,850.91
2018-04-29T04:25:53.927Z,850.91
2018-04-29T04:26:53.799Z,850.94
2018-04-29T04:27:53.675Z,850.92
2018-04-29T04:28:53.548Z,850.95
2018-04-29T04:29:53.423Z,850.98
2018-04-29T04:30:53.297Z,851.01
2018-04-29T04:31:53.173Z,851.00
2018-04-29T04:32:53.052Z,850.98
2018-04-29T04:33:52.923Z,851.00
2018-04-29T04:34:52.798Z,850.95
2018-04-29T04:35:52.673Z,850.94
2018-04-29T04:36:52.549Z,850.96
2018-04-29T04:37:52.422Z,850.99
2018-04-29T04:38:52.297Z,850.98
2018-04-29T04:39:52.170Z,851.03
2018-04-29T04:40:52.048Z,851.00
2018-04-29T04:41:51.923Z,851.01
2018-04-29T04:42:51.798Z,850.99
2018-04-29T04:43:51.675Z,851.04
2018-04-29T04:44:51.549Z,851.09
2018-04-29T04:45:51.427Z,851.04
2018-04-29T04:46:51.296Z,851.02
2018-04-29T04:49:22.650Z,850.89
2018-04-29T04:50:22.474Z,850.92
2018-04-29T04:52:15.134Z,851.00
2018-04-29T04:53:15.000Z,850.97
2018-04-29T04:54:14.875Z,851.01
2018-04-29T04:55:14.751Z,851.03
2018-04-29T04:56:14.626Z,851.03
2018-04-29T04:57:14.502Z,851.02
2018-04-29T04:58:14.435Z,851.04
2018-04-29T04:59:14.252Z,851.04
2018-04-29T05:00:14.127Z,851.05
2018-04-29T05:01:14.011Z,851.06
2018-04-29T05:02:13.878Z,851.08
2018-04-29T05:03:13.754Z,851.11
2018-04-29T05:04:13.630Z,851.10
2018-04-29T05:05:13.505Z,851.12
2018-04-29T05:06:13.381Z,851.11
2018-04-29T05:07:13.293Z,851.18
2018-04-29T05:08:13.131Z,851.12
2018-04-29T05:09:13.012Z,851.08
2018-04-29T05:10:12.883Z,851.05
2018-04-29T05:11:12.758Z,851.04
2018-04-29T05:12:12.634Z,851.06
2018-04-29T05:13:12.510Z,851.04
2018-04-29T05:14:12.384Z,851.02
2018-04-29T05:15:12.261Z,851.00
2018-04-29T05:16:12.137Z,850.99
2018-04-29T05:17:12.013Z,850.98
2018-04-29T05:18:11.886Z,850.97
2018-04-29T05:19:11.762Z,851.01
2018-04-29T05:20:11.640Z,851.01
2018-04-29T05:21:11.516Z,850.94
2018-04-29T05:22:11.422Z,850.92
2018-04-29T05:23:11.268Z,850.87
2018-04-29T05:24:11.143Z,850.88
2018-04-29T05:25:11.021Z,850.87
2018-04-29T05:26:10.895Z,850.88
2018-04-29T05:27:10.771Z,850.86
2018-04-29T05:28:10.647Z,850.84
2018-04-29T05:29:10.524Z,850.85
2018-04-29T05:30:10.399Z,850.83
2018-04-29T05:31:10.275Z,850.88
2018-04-29T05:32:10.152Z,850.87
2018-04-29T05:33:10.028Z,850.89
2018-04-29T05:34:09.904Z,850.87
2018-04-29T05:35:09.781Z,850.83
2018-04-29T05:36:09.658Z,850.85
2018-04-29T05:37:09.534Z,850.87
2018-04-29T05:38:09.408Z,850.87
2018-04-29T05:39:09.288Z,850.90
2018-04-29T05:40:09.164Z,850.82
2018-04-29T05:41:09.055Z,850.88
2018-04-29T05:42:08.916Z,850.91
2018-04-29T05:43:08.795Z,850.85
2018-04-29T05:44:08.671Z,850.81
2018-04-29T05:45:08.548Z,850.77
2018-04-29T05:46:08.422Z,850.75
2018-04-29T05:47:08.299Z,850.76
2018-04-29T05:48:08.176Z,850.76
2018-04-29T05:49:08.054Z,850.77
2018-04-29T05:50:07.936Z,850.76
2018-04-29T05:51:07.809Z,850.78
2018-04-29T05:52:07.687Z,850.79
2018-04-29T05:53:07.563Z,850.80
2018-04-29T05:54:07.440Z,850.75
2018-04-29T05:55:07.316Z,850.76
2018-04-29T05:56:07.194Z,850.72
2018-04-29T05:57:07.071Z,850.75
2018-04-29T05:58:06.950Z,850.78
2018-04-29T05:59:06.827Z,850.85
2018-04-29T06:00:06.707Z,850.80
2018-04-29T06:01:06.583Z,850.82
2018-04-29T06:02:06.459Z,850.79
2018-04-29T06:03:06.344Z,850.83
2018-04-29T06:04:06.215Z,850.84
2018-04-29T06:05:06.094Z,850.85
2018-04-29T06:06:05.971Z,850.88
2018-04-29T06:07:05.848Z,850.86
2018-04-29T06:08:05.728Z,850.83
2018-04-29T06:09:05.603Z,850.82
2018-04-29T06:10:05.480Z,850.80
2018-04-29T06:11:05.361Z,850.83
2018-04-29T06:12:05.238Z,850.83
2018-04-29T06:13:05.116Z,850.86
2018-04-29T06:14:05.027Z,850.82
2018-04-29T06:15:04.872Z,850.84
2018-04-29T06:16:04.749Z,850.82
2018-04-29T06:17:04.627Z,850.83
2018-04-29T06:18:04.502Z,850.80
2018-04-29T06:19:04.381Z,850.78
2018-04-29T06:20:04.259Z,850.78
2018-04-29T06:21:04.138Z,850.75
2018-04-29T06:22:04.015Z,850.71
2018-04-29T06:23:03.893Z,850.70
2018-04-29T06:24:03.771Z,850.66
2018-04-29T06:25:03.651Z,850.61
2018-04-29T06:26:03.610Z,850.64
2018-04-29T06:27:03.406Z,850.65
2018-04-29T06:28:03.283Z,850.66
2018-04-29T06:29:03.161Z,850.65
2018-04-29T06:30:03.041Z,850.65
2018-04-29T06:31:02.917Z,850.65
2018-04-29T06:32:02.810Z,850.60
2018-04-29T06:33:02.675Z,850.68
2018-04-29T06:34:02.550Z,850.67
2018-04-29T06:35:02.431Z,850.73
2018-04-29T06:36:02.316Z,850.75
2018-04-29T06:37:02.188Z,850.75
2018-04-29T06:38:02.065Z,850.74
2018-04-29T06:39:01.942Z,850.72
2018-04-29T06:40:01.821Z,850.72
2018-04-29T06:41:01.700Z,850.70
2018-04-29T06:42:01.577Z,850.70
2018-04-29T06:43:01.456Z,850.70
2018-04-29T06:44:01.332Z,850.66
2018-04-29T06:45:01.211Z,850.68
2018-04-29T06:46:01.090Z,850.68
2018-04-29T06:47:00.971Z,850.67
2018-04-29T06:48:00.848Z,850.70
2018-04-29T06:49:00.723Z,850.69
2018-04-29T06:50:00.600Z,850.72
2018-04-29T06:51:00.478Z,850.69
2018-04-29T06:52:00.356Z,850.74
2018-04-29T06:53:00.233Z,850.73
2018-04-29T06:54:00.120Z,850.78
2018-04-29T06:54:59.987Z,850.84
2018-04-29T06:55:59.863Z,850.82
2018-04-29T06:56:59.744Z,850.83
2018-04-29T06:57:59.620Z,850.86
2018-04-29T06:58:59.498Z,850.92
2018-04-29T06:59:59.377Z,850.94
2018-04-29T07:00:59.254Z,850.94
2018-04-29T07:01:59.130Z,850.93
2018-04-29T07:02:59.009Z,850.93
2018-04-29T07:03:58.886Z,850.96
2018-04-29T07:04:58.763Z,850.96
2018-04-29T07:05:58.640Z,850.93
2018-04-29T07:06:58.521Z,850.96
2018-04-29T07:07:58.396Z,851.02
2018-04-29T07:08:58.273Z,851.00
2018-04-29T07:09:58.150Z,851.02
2018-04-29T07:10:58.027Z,851.06
2018-04-29T07:11:57.905Z,851.08
2018-04-29T07:12:57.783Z,851.12
2018-04-29T07:13:57.658Z,851.11
2018-04-29T07:14:57.538Z,851.09
2018-04-29T07:15:57.424Z,850.99
2018-04-29T07:16:57.292Z,850.98
2018-04-29T07:17:57.169Z,851.02
2018-04-29T07:18:57.047Z,850.97
2018-04-29T07:19:57.000Z,851.01
2018-04-29T07:20:56.802Z,851.01
2018-04-29T07:21:56.678Z,851.04
2018-04-29T07:22:56.557Z,851.04
2018-04-29T07:23:56.433Z,851.02
2018-04-29T07:24:56.314Z,851.03
2018-04-29T07:25:56.189Z,851.06
2018-04-29T07:26:56.068Z,851.11
2018-04-29T07:27:55.944Z,851.05
2018-04-29T07:28:55.829Z,851.03
2018-04-29T07:29:55.699Z,851.07
2018-04-29T07:30:55.578Z,851.06
2018-04-29T07:31:55.453Z,851.09
2018-04-29T07:32:55.332Z,851.06
2018-04-29T07:33:55.208Z,851.02
2018-04-29T07:34:55.091Z,851.02
2018-04-29T07:35:54.962Z,851.03
2018-04-29T07:36:54.841Z,851.05
2018-04-29T07:37:54.720Z,851.06
2018-04-29T07:38:54.595Z,851.03
2018-04-29T07:39:54.568Z,851.03
2018-04-29T07:40:54.350Z,850.97
2018-04-29T07:41:54.230Z,850.94
2018-04-29T07:42:54.106Z,850.89
2018-04-29T07:43:53.982Z,850.91
2018-04-29T07:44:53.861Z,850.88
2018-04-29T07:45:53.737Z,850.86
2018-04-29T07:46:53.617Z,850.81
2018-04-29T07:47:53.505Z,850.83
2018-04-29T07:48:53.375Z,850.84
2018-04-29T07:49:53.251Z,850.87
2018-04-29T07:50:53.130Z,850.85
2018-04-29T07:51:53.010Z,850.81
2018-04-29T07:52:52.884Z,850.80
2018-04-29T07:53:52.765Z,850.78
2018-04-29T07:54:52.646Z,850.74
2018-04-29T07:55:52.520Z,850.71
2018-04-29T07:56:52.400Z,850.80
2018-04-29T07:57:52.278Z,850.75
2018-04-29T07:58:52.195Z,850.76
2018-04-29T07:59:52.037Z,850.74
2018-04-29T08:00:52.014Z,850.81
2018-04-29T08:01:51.793Z,850.72
2018-04-29T08:02:51.672Z,850.72
2018-04-29T08:03:51.549Z,850.71
2018-04-29T08:04:51.433Z,850.72
2018-04-29T08:05:51.307Z,850.70
2018-04-29T08:06:51.292Z,850.68
2018-04-29T08:07:51.064Z,850.65
2018-04-29T08:08:50.944Z,850.66
2018-04-29T08:09:50.821Z,850.63
2018-04-29T08:10:50.701Z,850.64
2018-04-29T08:11:50.578Z,850.63
2018-04-29T08:12:50.466Z,850.64
2018-04-29T08:13:50.336Z,850.65
2018-04-29T08:14:50.216Z,850.67
2018-04-29T08:15:50.107Z,850.68
2018-04-29T08:16:49.973Z,850.68
2018-04-29T08:17:49.851Z,850.69
2018-04-29T08:18:49.730Z,850.65
2018-04-29T08:19:49.612Z,850.67
2018-04-29T08:20:49.488Z,850.70
2018-04-29T08:21:49.365Z,850.65
2018-04-29T08:22:49.350Z,850.66
2018-04-29T08:23:49.123Z,850.62
2018-04-29T08:24:49.004Z,850.58
2018-04-29T08:25:48.880Z,850.56
2018-04-29T08:26:48.760Z,850.57
2018-04-29T08:27:48.636Z,850.64
2018-04-29T08:28:48.515Z,850.62
2018-04-29T08:29:48.395Z,850.57
2018-04-29T08:30:48.275Z,850.61
2018-04-29T08:31:48.153Z,850.60
2018-04-29T08:32:48.030Z,850.61
2018-04-29T08:33:47.909Z,850.58
2018-04-29T08:34:47.790Z,850.61
2018-04-29T08:35:47.666Z,850.65
2018-04-29T08:36:47.546Z,850.65
2018-04-29T08:37:47.429Z,850.66
2018-04-29T08:38:47.305Z,850.68
2018-04-29T08:39:47.188Z,850.66
2018-04-29T08:40:47.067Z,850.73
2018-04-29T08:41:46.990Z,850.80
2018-04-29T08:42:46.817Z,850.78
2018-04-29T08:43:46.699Z,850.78
2018-04-29T08:44:46.580Z,850.76
2018-04-29T08:45:46.455Z,850.79
2018-04-29T08:46:46.335Z,850.76
2018-04-29T08:47:46.212Z,850.85
2018-04-29T08:48:46.092Z,850.73
2018-04-29T08:49:45.972Z,850.73
2018-04-29T08:50:45.848Z,850.81
2018-04-29T08:51:45.728Z,850.84
2018-04-29T08:52:45.609Z,850.84
2018-04-29T08:53:45.485Z,850.86
2018-04-29T08:54:45.366Z,850.83
2018-04-29T08:55:45.243Z,850.88
2018-04-29T08:56:45.121Z,850.86
2018-04-29T08:57:45.000Z,850.82
2018-04-29T08:58:44.883Z,850.82
2018-04-29T08:59:44.759Z,850.86
2018-04-29T09:00:44.637Z,850.85
2018-04-29T09:01:44.534Z,850.83
2018-04-29T09:02:44.396Z,850.79
2018-04-29T09:03:44.369Z,850.81
2018-04-29T09:04:44.153Z,850.81
2018-04-29T09:05:44.032Z,850.81
2018-04-29T09:06:43.915Z,850.76
2018-04-29T09:07:43.790Z,850.69
2018-04-29T09:08:43.672Z,850.69
2018-04-29T09:09:43.549Z,850.61
2018-04-29T09:10:43.427Z,850.66
2018-04-29T09:11:43.307Z,850.65
2018-04-29T09:12:43.186Z,850.63
2018-04-29T09:13:43.066Z,850.63
2018-04-29T09:14:42.947Z,850.62
2018-04-29T09:15:42.826Z,850.64
2018-04-29T09:16:42.705Z,850.62
2018-04-29T09:17:42.644Z,850.57
2018-04-29T09:18:42.466Z,850.60
2018-04-29T09:19:42.347Z,850.55
2018-04-29T09:20:42.226Z,850.57
2018-04-29T09:21:42.108Z,850.50
2018-04-29T09:22:41.988Z,850.50
2018-04-29T09:23:41.865Z,850.50
2018-04-29T09:24:41.748Z,850.43
2018-04-29T09:25:41.628Z,850.46
2018-04-29T09:26:41.508Z,850.50
2018-04-29T09:27:41.390Z,850.47
2018-04-29T09:28:41.268Z,850.48
2018-04-29T09:29:41.149Z,850.43
2018-04-29T09:30:41.031Z,850.39
2018-04-29T09:31:40.911Z,850.40
2018-04-29T09:32:40.790Z,850.37
2018-04-29T09:33:40.672Z,850.29
2018-04-29T09:34:40.557Z,850.36
2018-04-29T09:35:40.432Z,850.30
2018-04-29T09:36:40.313Z,850.25
2018-04-29T09:37:40.191Z,850.22
2018-04-29T09:38:40.074Z,850.23
2018-04-29T09:39:39.956Z,850.16
2018-04-29T09:40:39.833Z,850.16
2018-04-29T09:41:39.714Z,850.17
2018-04-29T09:42:39.597Z,850.15
2018-04-29T09:43:39.504Z,850.20
2018-04-29T09:44:39.356Z,850.15
2018-04-29T09:45:39.237Z,850.14
2018-04-29T09:46:39.114Z,850.16
2018-04-29T09:47:38.997Z,850.12
2018-04-29T09:48:38.916Z,850.12
2018-04-29T09:49:38.756Z,850.15
2018-04-29T09:50:38.635Z,850.15
2018-04-29T09:51:38.517Z,850.13
2018-04-29T09:52:38.398Z,850.17
2018-04-29T09:53:38.277Z,850.10
2018-04-29T09:54:38.157Z,850.14
2018-04-29T09:55:38.039Z,850.06
2018-04-29T09:56:37.920Z,850.08
2018-04-29T09:57:37.798Z,850.10
2018-04-29T09:58:37.678Z,850.10
2018-04-29T09:59:37.560Z,850.09
2018-04-29T10:00:37.447Z,850.08
2018-04-29T10:01:37.320Z,850.01
2018-04-29T10:02:37.202Z,849.98
2018-04-29T10:03:37.087Z,849.99
2018-04-29T10:04:36.962Z,850.02
2018-04-29T10:05:36.840Z,850.00
2018-04-29T10:06:36.722Z,850.02
2018-04-29T10:07:36.603Z,850.03
2018-04-29T10:08:36.483Z,849.89
2018-04-29T10:09:36.398Z,849.88
2018-04-29T10:10:36.245Z,849.91
2018-04-29T10:11:36.127Z,849.87
2018-04-29T10:12:36.006Z,849.87
2018-04-29T10:13:35.887Z,849.88
2018-04-29T10:14:35.769Z,849.85
2018-04-29T10:15:35.650Z,849.86
2018-04-29T10:16:35.532Z,849.90
2018-04-29T10:17:35.410Z,849.87
2018-04-29T10:18:35.296Z,849.91
2018-04-29T10:19:35.174Z,849.87
2018-04-29T10:20:35.057Z,849.84
2018-04-29T10:21:34.934Z,849.83
2018-04-29T10:22:34.815Z,849.82
2018-04-29T10:23:34.695Z,849.83
2018-04-29T10:24:34.586Z,849.78
2018-04-29T10:25:34.456Z,849.84
2018-04-29T10:26:34.340Z,849.83
2018-04-29T10:27:34.220Z,849.84
2018-04-29T10:28:34.098Z,849.81
2018-04-29T10:29:33.979Z,849.75
2018-04-29T10:30:33.861Z,849.77
2018-04-29T10:31:33.741Z,849.74
2018-04-29T10:32:33.621Z,849.70
2018-04-29T10:33:33.500Z,849.69
2018-04-29T10:34:33.382Z,849.65
2018-04-29T10:35:33.263Z,849.63
2018-04-29T10:36:33.148Z,849.60
2018-04-29T10:37:33.025Z,849.60
2018-04-29T10:38:32.906Z,849.59
2018-04-29T10:39:32.787Z,849.55
2018-04-29T10:40:32.668Z,849.52
2018-04-29T10:41:32.548Z,849.51
2018-04-29T10:42:32.430Z,849.49
2018-04-29T10:43:32.309Z,849.52
2018-04-29T10:44:32.191Z,849.51
2018-04-29T10:45:32.071Z,849.48
2018-04-29T10:46:31.956Z,849.49
2018-04-29T10:47:31.836Z,849.49
2018-04-29T10:48:31.715Z,849.49
2018-04-29T10:49:31.595Z,849.54
2018-04-29T10:50:31.476Z,849.52
2018-04-29T10:51:31.359Z,849.41
2018-04-29T10:52:31.279Z,849.43
2018-04-29T10:53:31.122Z,849.40
2018-04-29T10:54:31.003Z,849.44
2018-04-29T10:55:30.886Z,849.42
2018-04-29T10:56:30.768Z,849.42
2018-04-29T10:57:30.648Z,849.43
2018-04-29T10:58:30.530Z,849.41
2018-04-29T10:59:30.411Z,849.44
2018-04-29T11:00:30.296Z,849.47
2018-04-29T11:01:30.174Z,849.40
2018-04-29T11:02:30.056Z,849.42
2018-04-29T11:03:29.946Z,849.41
2018-04-29T11:04:29.820Z,849.45
2018-04-29T11:05:29.700Z,849.45
2018-04-29T11:06:29.581Z,849.49
2018-04-29T11:07:29.461Z,849.45
2018-04-29T11:08:29.342Z,849.47
2018-04-29T11:09:29.222Z,849.56
2018-04-29T11:10:29.102Z,849.58
2018-04-29T11:11:28.985Z,849.50
2018-04-29T11:12:28.865Z,849.54
2018-04-29T11:13:28.745Z,849.50
2018-04-29T11:14:28.628Z,849.53
2018-04-29T11:15:28.507Z,849.50
2018-04-29T11:16:28.388Z,849.55
2018-04-29T11:17:28.268Z,849.50
2018-04-29T11:18:28.152Z,849.44
2018-04-29T11:19:28.030Z,849.42
2018-04-29T11:20:27.910Z,849.45
2018-04-29T11:21:27.790Z,849.47
2018-04-29T11:22:27.679Z,849.45
2018-04-29T11:23:27.552Z,849.48
2018-04-29T11:24:27.434Z,849.47
2018-04-29T11:25:27.317Z,849.47
2018-04-29T11:26:27.196Z,849.50
2018-04-29T11:27:27.076Z,849.44
2018-04-29T11:28:26.961Z,849.35
2018-04-29T11:29:26.845Z,849.39
2018-04-29T11:30:26.724Z,849.38
2018-04-29T11:31:26.607Z,849.39
2018-04-29T11:32:26.487Z,849.35
2018-04-29T11:33:26.372Z,849.32
2018-04-29T11:34:26.251Z,849.31
2018-04-29T11:35:26.135Z,849.36
2018-04-29T11:36:26.017Z,849.37
2018-04-29T11:37:25.901Z,849.35
2018-04-29T11:38:25.783Z,849.32
2018-04-29T11:39:25.663Z,849.30
2018-04-29T11:40:25.580Z,849.26
2018-04-29T11:41:25.431Z,849.27
2018-04-29T11:42:25.313Z,849.32
2018-04-29T11:43:25.196Z,849.30
2018-04-29T11:44:25.079Z,849.27
2018-04-29T11:45:24.963Z,849.25
2018-04-29T11:46:24.845Z,849.21
2018-04-29T11:47:24.729Z,849.27
2018-04-29T11:48:24.613Z,849.28
2018-04-29T11:49:24.493Z,849.22
2018-04-29T11:50:24.379Z,849.24
2018-04-29T11:51:24.261Z,849.32
2018-04-29T11:52:24.145Z,849.31
2018-04-29T11:53:24.025Z,849.27
2018-04-29T11:54:23.912Z,849.30
2018-04-29T11:55:23.792Z,849.28
2018-04-29T11:56:23.677Z,849.27
2018-04-29T11:57:23.558Z,849.17
2018-04-29T11:58:23.440Z,849.14
2018-04-29T11:59:23.326Z,849.22
2018-04-29T12:00:23.208Z,849.23
2018-04-29T12:01:23.090Z,849.15
2018-04-29T12:02:22.971Z,849.19
2018-04-29T12:03:22.856Z,849.19
2018-04-29T12:04:22.739Z,849.08
2018-04-29T12:05:22.621Z,849.07
2018-04-29T12:06:22.506Z,849.05
2018-04-29T12:07:22.387Z,849.05
2018-04-29T12:08:22.273Z,849.06
2018-04-29T12:09:22.185Z,849.11
2018-04-29T12:10:22.042Z,849.10
2018-04-29T12:11:21.920Z,849.09
2018-04-29T12:12:21.871Z,849.02
2018-04-29T12:13:21.689Z,849.03
2018-04-29T12:14:21.568Z,849.01
2018-04-29T12:15:21.452Z,849.05
2018-04-29T12:16:21.413Z,849.00
2018-04-29T12:17:21.219Z,848.96
2018-04-29T12:18:21.107Z,848.98
2018-04-29T12:19:20.983Z,848.96
2018-04-29T12:20:20.865Z,848.96
2018-04-29T12:21:20.749Z,848.92
2018-04-29T12:22:20.632Z,848.94
2018-04-29T12:23:20.519Z,848.87
2018-04-29T12:24:20.398Z,848.97
2018-04-29T12:25:20.279Z,848.92
2018-04-29T12:26:20.160Z,848.86
2018-04-29T12:27:20.043Z,848.92
2018-04-29T12:28:19.926Z,848.86
2018-04-29T12:29:19.807Z,848.89